Time;durP1;ratioP1;P1;durP2;ratioP2;P2;SDS_P1;SDS_P2;PMS_P1;PMS_P2;Temp;Humidity;BMP_temperature;BMP_pressure;BME280_temperature;BME280_humidity;BME280_pressure;Samples;Min_cycle;Max_cycle;Signal;HPM_P1;HPM_P2
2023/03/20 00:00:47;;;;;;;;;;;;;;;;;;4897139;29;20416;-80
2023/03/20 00:03:14;;;;;;;;;;;;;;;;;;4895496;29;19923;-80
2023/03/20 00:05:41;;;;;;;;;;;;;;;;;;4899353;29;19926;-80
2023/03/20 00:08:09;;;;;;;;;;;;;;;;;;4906182;29;19923;-80
2023/03/20 00:10:36;;;;;;;;;;;;;;;;;;4914920;29;19923;-80
2023/03/20 00:13:03;;;;;;;;;;;;;;;;;;4925874;29;20106;-80
2023/03/20 00:15:31;;;;;;;;;;;;;;;;;;4897630;29;19938;-80
2023/03/20 00:17:58;;;;;;;;;;;;;;;;;;4909776;29;19923;-80
2023/03/20 00:20:30;;;;;;;;;;;;;;;;;;4898916;29;19930;-80
2023/03/20 00:22:57;;;;;;;;;;;;;;;;;;4921196;29;19931;-80
2023/03/20 00:25:27;;;;;;;;;;;;;;;;;;4898852;29;19923;-80
2023/03/20 00:27:54;;;;;;;;;;;;;;;;;;4914956;29;19927;-80
2023/03/20 00:30:25;;;;;;;;;;;;;;;;;;4883253;29;19930;-80
2023/03/20 00:33:17;;;;;;;;;;;;;;;;;;4905515;29;19931;-80
2023/03/20 00:35:47;;;;;;;;;;;;;;;;;;4896291;29;19930;-80
2023/03/20 00:38:14;;;;;;;;;;;;;;;;;;4928924;29;20009;-80
2023/03/20 00:40:46;;;;;;;;;;;;;;;;;;4899542;29;19930;-80
2023/03/20 00:43:14;;;;;;;;;;;;;;;;;;4894100;29;19930;-80
2023/03/20 00:45:41;;;;;;;;;;;;;;;;;;4912618;29;19942;-80
2023/03/20 00:48:13;;;;;;;;;;;;;;;;;;4910410;29;19934;-80
2023/03/20 00:50:40;;;;;;;;;;;;;;;;;;4912906;29;19930;-80
2023/03/20 00:53:10;;;;;;;;;;;;;;;;;;4901933;29;19923;-80
2023/03/20 00:55:36;;;;;;;;;;;;;;;;;;4899144;29;19930;-80
2023/03/20 00:58:05;;;;;;;;;;;;;;;;;;4920426;29;19923;-80
2023/03/20 01:00:34;;;;;;;;;;;;;;;;;;4878790;29;19924;-80
2023/03/20 01:03:01;;;;;;;;;;;;;;;;;;4921897;29;19934;-80
2023/03/20 01:05:30;;;;;;;;;;;;;;;;;;4897331;29;20228;-80
2023/03/20 01:08:00;;;;;;;;;;;;;;;;;;4897343;29;20386;-80
2023/03/20 01:10:30;;;;;;;;;;;;;;;;;;4907399;29;19923;-80
2023/03/20 01:12:59;;;;;;;;;;;;;;;;;;4914471;29;19945;-80
2023/03/20 01:15:30;;;;;;;;;;;;;;;;;;4911150;29;19930;-80
2023/03/20 01:17:57;;;;;;;;;;;;;;;;;;4912782;29;19931;-80
2023/03/20 01:20:27;;;;;;;;;;;;;;;;;;4894571;29;19923;-80
2023/03/20 01:22:56;;;;;;;;;;;;;;;;;;4912768;29;19930;-80
2023/03/20 01:25:23;;;;;;;;;;;;;;;;;;4897882;29;19923;-80
2023/03/20 01:27:51;;;;;;;;;;;;;;;;;;4909000;29;19923;-80
2023/03/20 01:30:37;;;;;;;;;;;;;;;;;;4892600;29;20294;-80
2023/03/20 01:33:06;;;;;;;;;;;;;;;;;;4898150;29;20350;-80
2023/03/20 01:35:36;;;;;;;;;;;;;;;;;;4913782;29;20305;-80
2023/03/20 01:38:05;;;;;;;;;;;;;;;;;;4910592;29;19927;-80
2023/03/20 01:40:36;;;;;;;;;;;;;;;;;;4908357;29;19938;-80
2023/03/20 01:43:06;;;;;;;;;;;;;;;;;;4898995;29;19923;-80
2023/03/20 01:45:34;;;;;;;;;;;;;;;;;;4882594;29;19927;-80
2023/03/20 01:48:13;;;;;;;;;;;;;;;;;;4899001;29;20278;-80
2023/03/20 01:50:42;;;;;;;;;;;;;;;;;;4897898;29;19923;-80
2023/03/20 01:53:14;;;;;;;;;;;;;;;;;;4898869;29;19923;-80
2023/03/20 01:55:45;;;;;;;;;;;;;;;;;;4907926;29;19930;-80
2023/03/20 01:58:14;;;;;;;;;;;;;;;;;;4889328;29;19934;-80
2023/03/20 02:00:44;;;;;;;;;;;;;;;;;;4894581;29;19927;-80
2023/03/20 02:03:16;;;;;;;;;;;;;;;;;;4912547;29;19946;-80
2023/03/20 02:06:09;;;;;;;;;;;;;;;;;;4913218;29;19934;-80
2023/03/20 02:09:07;;;;;;;;;;;;;;;;;;4893777;29;19931;-80
2023/03/20 02:11:42;;;;;;;;;;;;;;;;;;4896280;29;20378;-80
2023/03/20 02:14:09;;;;;;;;;;;;;;;;;;4909376;29;19950;-80
2023/03/20 02:16:59;;;;;;;;;;;;;;;;;;4895349;29;19938;-80
2023/03/20 02:19:58;;;;;;;;;;;;;;;;;;4895596;29;19923;-80
2023/03/20 02:22:40;;;;;;;;;;;;;;;;;;4872187;29;19927;-80
2023/03/20 02:25:26;;;;;;;;;;;;;;;;;;4906357;29;19930;-80
2023/03/20 02:28:08;;;;;;;;;;;;;;;;;;4906163;29;19923;-80
2023/03/20 02:30:56;;;;;;;;;;;;;;;;;;4893665;29;19934;-80
2023/03/20 02:33:37;;;;;;;;;;;;;;;;;;4913148;29;19954;-80
2023/03/20 02:36:23;;;;;;;;;;;;;;;;;;4890577;29;20437;-80
2023/03/20 02:38:56;;;;;;;;;;;;;;;;;;4909601;29;19923;-80
2023/03/20 02:41:27;;;;;;;;;;;;;;;;;;4911010;29;19930;-80
2023/03/20 02:43:56;;;;;;;;;;;;;;;;;;4921600;29;19954;-80
2023/03/20 02:46:26;;;;;;;;;;;;;;;;;;4892587;29;19949;-80
2023/03/20 02:48:54;;;;;;;;;;;;;;;;;;4890773;29;20397;-80
2023/03/20 02:51:23;;;;;;;;;;;;;;;;;;4921839;29;20565;-80
2023/03/20 02:53:51;;;;;;;;;;;;;;;;;;4905765;29;19923;-80
2023/03/20 02:56:22;;;;;;;;;;;;;;;;;;4910382;29;19931;-80
2023/03/20 02:58:53;;;;;;;;;;;;;;;;;;4904541;29;19930;-80
2023/03/20 03:01:22;;;;;;;;;;;;;;;;;;4881224;29;20298;-80
2023/03/20 03:03:59;;;;;;;;;;;;;;;;;;4928822;29;20001;-80
2023/03/20 03:06:26;;;;;;;;;;;;;;;;;;4884046;29;19934;-80
2023/03/20 03:08:54;;;;;;;;;;;;;;;;;;4911622;29;20445;-80
2023/03/20 03:11:31;;;;;;;;;;;;;;;;;;4911049;29;20325;-80
2023/03/20 03:14:01;;;;;;;;;;;;;;;;;;4882913;29;20416;-80
2023/03/20 03:16:31;;;;;;;;;;;;;;;;;;4915855;29;19930;-80
2023/03/20 03:19:02;;;;;;;;;;;;;;;;;;4909870;29;19923;-80
2023/03/20 03:21:32;;;;;;;;;;;;;;;;;;4910426;29;19923;-80
2023/03/20 03:24:00;;;;;;;;;;;;;;;;;;4882443;29;19930;-80
2023/03/20 03:26:31;;;;;;;;;;;;;;;;;;4899765;29;19930;-80
2023/03/20 03:29:02;;;;;;;;;;;;;;;;;;4898562;29;19930;-80
2023/03/20 03:31:32;;;;;;;;;;;;;;;;;;4895115;29;19931;-80
2023/03/20 03:34:00;;;;;;;;;;;;;;;;;;4924392;29;19922;-80
2023/03/20 03:36:35;;;;;;;;;;;;;;;;;;4933777;23;19938;-81
2023/03/20 03:39:12;;;;;;;;;;;;;;;;;;4930828;29;19933;-81
2023/03/20 03:41:41;;;;;;;;;;;;;;;;;;4931831;29;20435;-81
2023/03/20 03:44:11;;;;;;;;;;;;;;;;;;4927629;29;19982;-81
2023/03/20 03:46:39;;;;;;;;;;;;;;;;;;4908970;29;19926;-81
2023/03/20 03:49:19;;;;;;;;;;;;;;;;;;4934651;29;19930;-81
2023/03/20 03:51:53;;;;;;;;;;;;;;;;;;4927971;29;19922;-81
2023/03/20 03:54:21;;;;;;;;;;;;;;;;;;4916797;29;20304;-81
2023/03/20 03:57:13;;;;;;;;;;;;;;;;;;4929690;29;19930;-81
2023/03/20 03:59:41;;;;;;;;;;;;;;;;;;4948900;28;19922;-81
2023/03/20 04:02:08;;;;;;;;;;;;;;;;;;4911799;29;19946;-81
2023/03/20 04:04:36;;;;;;;;;;;;;;;;;;4928999;29;19927;-81
2023/03/20 04:07:05;;;;;;;;;;;;;;;;;;4946369;29;20412;-81
2023/03/20 04:09:33;;;;;;;;;;;;;;;;;;4917382;29;19923;-81
2023/03/20 04:12:02;;;;;;;;;;;;;;;;;;4932545;29;19923;-81
2023/03/20 04:14:29;;;;;;;;;;;;;;;;;;4920003;29;19923;-81
2023/03/20 04:16:57;;;;;;;;;;;;;;;;;;4931878;29;19935;-81
2023/03/20 04:19:27;;;;;;;;;;;;;;;;;;4935050;29;19987;-81
2023/03/20 04:21:54;;;;;;;;;;;;;;;;;;4948030;28;20112;-81
2023/03/20 04:24:22;;;;;;;;;;;;;;;;;;4934442;29;19922;-81
2023/03/20 04:26:49;;;;;;;;;;;;;;;;;;4916104;29;19922;-82
2023/03/20 04:29:19;;;;;;;;;;;;;;;;;;4950574;28;20308;-82
2023/03/20 04:32:04;;;;;;;;;;;;;;;;;;4918367;29;19923;-82
2023/03/20 04:34:57;;;;;;;;;;;;;;;;;;4949020;28;19945;-81
2023/03/20 04:37:50;;;;;;;;;;;;;;;;;;4925177;29;19931;-81
2023/03/20 04:40:17;;;;;;;;;;;;;;;;;;4935044;29;19930;-82
2023/03/20 04:42:47;;;;;;;;;;;;;;;;;;4932384;29;20128;-81
2023/03/20 04:45:23;;;;;;;;;;;;;;;;;;4930208;29;19923;-81
2023/03/20 04:47:52;;;;;;;;;;;;;;;;;;4922357;29;19923;-81
2023/03/20 04:50:27;;;;;;;;;;;;;;;;;;4931956;29;19934;-81
2023/03/20 04:52:54;;;;;;;;;;;;;;;;;;4919509;29;20388;-80
2023/03/20 04:55:25;;;;;;;;;;;;;;;;;;4915380;29;19923;-80
2023/03/20 04:57:56;;;;;;;;;;;;;;;;;;4926379;29;20304;-80
2023/03/20 05:00:28;;;;;;;;;;;;;;;;;;4941743;29;19934;-80
2023/03/20 05:02:57;;;;;;;;;;;;;;;;;;4944251;28;19990;-80
2023/03/20 05:05:26;;;;;;;;;;;;;;;;;;4937409;28;20384;-80
2023/03/20 05:07:56;;;;;;;;;;;;;;;;;;4904285;29;19927;-80
2023/03/20 05:10:31;;;;;;;;;;;;;;;;;;4899304;29;19923;-80
2023/03/20 05:13:04;;;;;;;;;;;;;;;;;;4921529;29;20564;-80
2023/03/20 05:15:49;;;;;;;;;;;;;;;;;;4929627;29;20289;-79
2023/03/20 05:18:40;;;;;;;;;;;;;;;;;;4908306;29;19930;-79
2023/03/20 05:21:20;;;;;;;;;;;;;;;;;;4930733;29;20368;-80
2023/03/20 05:23:47;;;;;;;;;;;;;;;;;;4928618;29;19930;-81
2023/03/20 05:26:34;;;;;;;;;;;;;;;;;;4914020;29;19923;-81
2023/03/20 05:29:24;;;;;;;;;;;;;;;;;;4943041;28;19922;-81
2023/03/20 05:32:06;;;;;;;;;;;;;;;;;;4925011;29;19922;-81
2023/03/20 05:34:45;;;;;;;;;;;;;;;;;;4900726;29;20317;-81
2023/03/20 05:37:19;;;;;;;;;;;;;;;;;;4904070;29;20400;-81
2023/03/20 05:40:12;;;;;;;;;;;;;;;;;;4908396;29;19930;-81
2023/03/20 05:42:42;;;;;;;;;;;;;;;;;;4915245;29;19949;-81
2023/03/20 05:45:41;;;;;;;;;;;;;;;;;;4914146;29;19933;-81
2023/03/20 05:48:18;;;;;;;;;;;;;;;;;;4916756;29;20345;-81
2023/03/20 05:51:09;;;;;;;;;;;;;;;;;;4910831;29;19927;-81
2023/03/20 05:53:47;;;;;;;;;;;;;;;;;;4916680;29;19933;-81
2023/03/20 05:56:52;;;;;;;;;;;;;;;;;;4901209;29;19931;-81
2023/03/20 05:59:46;;;;;;;;;;;;;;;;;;4914130;29;19922;-81
2023/03/20 06:02:16;;;;;;;;;;;;;;;;;;4913395;29;19923;-81
2023/03/20 06:04:50;;;;;;;;;;;;;;;;;;4901109;29;20293;-81
2023/03/20 06:07:29;;;;;;;;;;;;;;;;;;4915248;29;19927;-81
2023/03/20 06:10:06;;;;;;;;;;;;;;;;;;4917444;29;19931;-81
2023/03/20 06:12:33;;;;;;;;;;;;;;;;;;4917455;29;19942;-81
2023/03/20 06:15:01;;;;;;;;;;;;;;;;;;4900355;29;22371;-81
2023/03/20 06:17:30;;;;;;;;;;;;;;;;;;4934213;28;19931;-81
2023/03/20 06:20:02;;;;;;;;;;;;;;;;;;4914100;29;19946;-81
2023/03/20 06:22:31;;;;;;;;;;;;;;;;;;4932590;28;19942;-81
2023/03/20 06:24:58;;;;;;;;;;;;;;;;;;4917474;29;19926;-80
2023/03/20 06:27:32;;;;;;;;;;;;;;;;;;4902233;29;19922;-81
2023/03/20 06:30:02;;;;;;;;;;;;;;;;;;4928712;28;19923;-81
2023/03/20 06:32:33;;;;;;;;;;;;;;;;;;4918288;29;20409;-81
2023/03/20 06:35:03;;;;;;;;;;;;;;;;;;4915450;29;19926;-81
2023/03/20 06:37:35;;;;;;;;;;;;;;;;;;4917069;29;19926;-81
2023/03/20 06:40:09;;;;;;;;;;;;;;;;;;4913509;29;19927;-81
2023/03/20 06:42:38;;;;;;;;;;;;;;;;;;4902409;29;20386;-81
2023/03/20 06:45:07;;;;;;;;;;;;;;;;;;4946252;29;19926;-81
2023/03/20 06:47:52;;;;;;;;;;;;;;;;;;4908408;29;20297;-81
2023/03/20 06:50:19;;;;;;;;;;;;;;;;;;4941161;29;20384;-81
2023/03/20 06:52:48;;;;;;;;;;;;;;;;;;4935580;28;19950;-81
2023/03/20 06:55:31;;;;;;;;;;;;;;;;;;4908616;29;19934;-81
2023/03/20 06:57:57;;;;;;;;;;;;;;;;;;4941429;28;19923;-81
2023/03/20 07:00:25;;;;;;;;;;;;;;;;;;4935931;29;19927;-81
2023/03/20 07:02:54;;;;;;;;;;;;;;;;;;4929014;29;19938;-81
2023/03/20 07:05:22;;;;;;;;;;;;;;;;;;4926044;29;19934;-81
2023/03/20 07:07:53;;;;;;;;;;;;;;;;;;4943983;28;19926;-81
2023/03/20 07:10:23;;;;;;;;;;;;;;;;;;4946392;29;19930;-80
2023/03/20 07:12:52;;;;;;;;;;;;;;;;;;4942924;28;20386;-81
2023/03/20 07:15:19;;;;;;;;;;;;;;;;;;4940995;29;19946;-81
2023/03/20 07:17:47;;;;;;;;;;;;;;;;;;4944452;28;19929;-81
2023/03/20 07:20:14;;;;;;;;;;;;;;;;;;4939193;29;20543;-80
2023/03/20 07:22:43;;;;;;;;;;;;;;;;;;4927911;29;20377;-81
2023/03/20 07:25:25;;;;;;;;;;;;;;;;;;4908949;29;20385;-80
2023/03/20 07:27:52;;;;;;;;;;;;;;;;;;4923279;29;19923;-80
2023/03/20 07:30:48;;;;;;;;;;;;;;;;;;4927906;29;19929;-80
2023/03/20 07:33:19;;;;;;;;;;;;;;;;;;4936775;28;20081;-80
2023/03/20 07:35:46;;;;;;;;;;;;;;;;;;4942354;29;20384;-80
2023/03/20 07:38:18;;;;;;;;;;;;;;;;;;4921945;29;19923;-81
2023/03/20 07:40:56;;;;;;;;;;;;;;;;;;4928570;29;19926;-81
2023/03/20 07:43:25;;;;;;;;;;;;;;;;;;4925948;29;19923;-80
2023/03/20 07:46:10;;;;;;;;;;;;;;;;;;4931221;29;19922;-80
2023/03/20 07:48:39;;;;;;;;;;;;;;;;;;4927182;29;20401;-80
2023/03/20 07:51:06;;;;;;;;;;;;;;;;;;4927370;29;19923;-80
2023/03/20 07:53:35;;;;;;;;;;;;;;;;;;4930872;29;19922;-80
2023/03/20 07:56:06;;;;;;;;;;;;;;;;;;4931764;29;19942;-81
2023/03/20 07:58:35;;;;;;;;;;;;;;;;;;4926481;29;19929;-81
2023/03/20 08:01:02;;;;;;;;;;;;;;;;;;4932244;29;19930;-81
2023/03/20 08:03:30;;;;;;;;;;;;;;;;;;4932403;29;20486;-80
2023/03/20 08:05:57;;;;;;;;;;;;;;;;;;4934537;29;19931;-81
2023/03/20 08:08:24;;;;;;;;;;;;;;;;;;4925454;29;19934;-81
2023/03/20 08:10:51;;;;;;;;;;;;;;;;;;4950484;28;19931;-81
2023/03/20 08:13:27;;;;;;;;;;;;;;;;;;4930923;29;19927;-81
2023/03/20 08:15:54;;;;;;;;;;;;;;;;;;4913740;29;19927;-81
2023/03/20 08:18:21;;;;;;;;;;;;;;;;;;4933425;29;19930;-81
2023/03/20 08:20:49;;;;;;;;;;;;;;;;;;4942522;28;19926;-81
2023/03/20 08:23:18;;;;;;;;;;;;;;;;;;4933669;29;19926;-80
2023/03/20 08:25:47;;;;;;;;;;;;;;;;;;4926580;29;19931;-81
2023/03/20 08:28:14;;;;;;;;;;;;;;;;;;4930258;29;20529;-80
2023/03/20 08:30:42;;;;;;;;;;;;;;;;;;4926138;29;19922;-81
2023/03/20 08:33:09;;;;;;;;;;;;;;;;;;4929190;29;19923;-81
2023/03/20 08:35:39;;;;;;;;;;;;;;;;;;4933133;29;19938;-80
2023/03/20 08:38:09;;;;;;;;;;;;;;;;;;4931454;29;20304;-81
2023/03/20 08:40:36;;;;;;;;;;;;;;;;;;4942129;28;19949;-81
2023/03/20 08:43:05;;;;;;;;;;;;;;;;;;4925897;29;19937;-81
2023/03/20 08:45:35;;;;;;;;;;;;;;;;;;4925651;29;19996;-80
2023/03/20 08:48:05;;;;;;;;;;;;;;;;;;4930145;29;19930;-80
2023/03/20 08:50:32;;;;;;;;;;;;;;;;;;4930731;29;19938;-81
2023/03/20 08:53:00;;;;;;;;;;;;;;;;;;4948477;28;19929;-81
2023/03/20 08:55:29;;;;;;;;;;;;;;;;;;4929573;29;20337;-81
2023/03/20 08:58:01;;;;;;;;;;;;;;;;;;4911863;29;20302;-81
2023/03/20 09:00:30;;;;;;;;;;;;;;;;;;4930123;29;19930;-81
2023/03/20 09:02:59;;;;;;;;;;;;;;;;;;4948307;28;19923;-80
2023/03/20 09:05:30;;;;;;;;;;;;;;;;;;4918912;29;19930;-81
2023/03/20 09:07:57;;;;;;;;;;;;;;;;;;4932832;29;20004;-80
2023/03/20 09:10:24;;;;;;;;;;;;;;;;;;4929803;29;19923;-81
2023/03/20 09:12:53;;;;;;;;;;;;;;;;;;4926785;29;20456;-80
2023/03/20 09:15:20;;;;;;;;;;;;;;;;;;4927389;29;20275;-80
2023/03/20 09:17:47;;;;;;;;;;;;;;;;;;4926370;29;19923;-80
2023/03/20 09:20:17;;;;;;;;;;;;;;;;;;4931244;29;19923;-80
2023/03/20 09:22:50;;;;;;;;;;;;;;;;;;4920191;29;19927;-80
2023/03/20 09:25:17;;;;;;;;;;;;;;;;;;4926846;29;19929;-81
2023/03/20 09:27:50;;;;;;;;;;;;;;;;;;4926689;29;19927;-81
2023/03/20 09:30:17;;;;;;;;;;;;;;;;;;4926527;29;19945;-81
2023/03/20 09:32:45;;;;;;;;;;;;;;;;;;4926515;29;20377;-81
2023/03/20 09:35:12;;;;;;;;;;;;;;;;;;4931460;29;19932;-80
2023/03/20 09:37:39;;;;;;;;;;;;;;;;;;4955050;23;19926;-80
2023/03/20 09:40:08;;;;;;;;;;;;;;;;;;4946421;28;19930;-80
2023/03/20 09:42:38;;;;;;;;;;;;;;;;;;4949132;29;19923;-80
2023/03/20 09:45:07;;;;;;;;;;;;;;;;;;4947078;28;20304;-80
2023/03/20 09:47:38;;;;;;;;;;;;;;;;;;4945818;29;19929;-80
2023/03/20 09:50:12;;;;;;;;;;;;;;;;;;4941986;29;19957;-80
2023/03/20 09:52:40;;;;;;;;;;;;;;;;;;4949547;29;19922;-80
2023/03/20 09:55:11;;;;;;;;;;;;;;;;;;4945908;28;19922;-80
2023/03/20 09:57:39;;;;;;;;;;;;;;;;;;4948421;29;19923;-79
2023/03/20 10:00:07;;;;;;;;;;;;;;;;;;4960732;29;19932;-78
2023/03/20 10:02:40;;;;;;;;;;;;;;;;;;4943872;28;19929;-78
2023/03/20 10:05:11;;;;;;;;;;;;;;;;;;4938400;29;19922;-78
2023/03/20 10:07:38;;;;;;;;;;;;;;;;;;4947492;29;19930;-78
2023/03/20 10:10:12;;;;;;;;;;;;;;;;;;4950038;29;19923;-78
2023/03/20 10:12:47;;;;;;;;;;;;;;;;;;4945775;28;19926;-78
2023/03/20 10:15:18;;;;;;;;;;;;;;;;;;4951121;28;20296;-78
2023/03/20 10:17:48;;;;;;;;;;;;;;;;;;4944618;29;20332;-79
2023/03/20 10:20:19;;;;;;;;;;;;;;;;;;4951565;29;19923;-79
2023/03/20 10:22:47;;;;;;;;;;;;;;;;;;4929458;29;19923;-79
2023/03/20 10:25:21;;;;;;;;;;;;;;;;;;4943503;29;19923;-78
2023/03/20 10:27:49;;;;;;;;;;;;;;;;;;4930369;29;19934;-79
2023/03/20 10:30:20;;;;;;;;;;;;;;;;;;4945340;29;19923;-79
2023/03/20 10:32:48;;;;;;;;;;;;;;;;;;4940496;29;19922;-79
2023/03/20 10:35:18;;;;;;;;;;;;;;;;;;4945680;29;19929;-79
2023/03/20 10:37:48;;;;;;;;;;;;;;;;;;4944186;29;20312;-79
2023/03/20 10:40:26;;;;;;;;;;;;;;;;;;4934964;29;19922;-80
2023/03/20 10:42:54;;;;;;;;;;;;;;;;;;4936871;29;19934;-79
2023/03/20 10:45:30;;;;;;;;;;;;;;;;;;4947142;29;19922;-79
2023/03/20 10:47:57;;;;;;;;;;;;;;;;;;4939414;29;19922;-80
2023/03/20 10:50:28;;;;;;;;;;;;;;;;;;4949431;29;20412;-80
2023/03/20 10:52:55;;;;;;;;;;;;;;;;;;4930502;29;20324;-80
2023/03/20 10:55:23;;;;;;;;;;;;;;;;;;4937657;29;19929;-80
2023/03/20 10:58:02;;;;;;;;;;;;;;;;;;4932290;29;19923;-80
2023/03/20 11:00:34;;;;;;;;;;;;;;;;;;4945556;29;19930;-80
2023/03/20 11:03:03;;;;;;;;;;;;;;;;;;4941227;28;19940;-80
2023/03/20 11:05:31;;;;;;;;;;;;;;;;;;4941956;29;19933;-81
2023/03/20 11:08:01;;;;;;;;;;;;;;;;;;4938609;29;19922;-80
2023/03/20 11:10:31;;;;;;;;;;;;;;;;;;4949151;28;19923;-81
2023/03/20 11:12:59;;;;;;;;;;;;;;;;;;4943417;29;19933;-81
2023/03/20 11:15:28;;;;;;;;;;;;;;;;;;4939039;29;19922;-81
2023/03/20 11:17:56;;;;;;;;;;;;;;;;;;4945396;29;19930;-81
2023/03/20 11:20:23;;;;;;;;;;;;;;;;;;4943318;29;19923;-81
2023/03/20 11:22:57;;;;;;;;;;;;;;;;;;4941964;28;19922;-81
2023/03/20 11:25:25;;;;;;;;;;;;;;;;;;4948327;29;19922;-81
2023/03/20 11:27:52;;;;;;;;;;;;;;;;;;4935813;29;19937;-81
2023/03/20 11:30:19;;;;;;;;;;;;;;;;;;4933015;29;20305;-81
2023/03/20 11:32:48;;;;;;;;;;;;;;;;;;4943364;29;19922;-81
2023/03/20 11:35:18;;;;;;;;;;;;;;;;;;4938573;29;19946;-81
2023/03/20 11:37:49;;;;;;;;;;;;;;;;;;4949438;29;19929;-81
2023/03/20 11:40:17;;;;;;;;;;;;;;;;;;4939296;29;19923;-81
2023/03/20 11:42:51;;;;;;;;;;;;;;;;;;4945925;29;20320;-81
2023/03/20 11:45:18;;;;;;;;;;;;;;;;;;4948430;29;19930;-81
2023/03/20 11:47:52;;;;;;;;;;;;;;;;;;4941554;29;19929;-81
2023/03/20 11:50:30;;;;;;;;;;;;;;;;;;4946710;29;20440;-81
2023/03/20 11:53:00;;;;;;;;;;;;;;;;;;4943959;29;19923;-81
2023/03/20 11:55:28;;;;;;;;;;;;;;;;;;4951359;29;19922;-81
2023/03/20 11:58:01;;;;;;;;;;;;;;;;;;4949434;29;19923;-81
2023/03/20 12:00:36;;;;;;;;;;;;;;;;;;4950925;29;19930;-81
2023/03/20 12:03:17;;;;;;;;;;;;;;;;;;4942227;29;20412;-81
2023/03/20 12:05:46;;;;;;;;;;;;;;;;;;4948162;29;19933;-81
2023/03/20 12:08:14;;;;;;;;;;;;;;;;;;4942687;29;19922;-81
2023/03/20 12:10:43;;;;;;;;;;;;;;;;;;4944658;29;19945;-81
2023/03/20 12:13:11;;;;;;;;;;;;;;;;;;4944035;29;20308;-81
2023/03/20 12:15:42;;;;;;;;;;;;;;;;;;4937003;29;19930;-81
2023/03/20 12:18:12;;;;;;;;;;;;;;;;;;4930731;29;20300;-81
2023/03/20 12:20:43;;;;;;;;;;;;;;;;;;4950211;29;19922;-81
2023/03/20 12:23:12;;;;;;;;;;;;;;;;;;4938141;29;19930;-81
2023/03/20 12:25:44;;;;;;;;;;;;;;;;;;4941476;29;19930;-81
2023/03/20 12:28:12;;;;;;;;;;;;;;;;;;4945787;29;19922;-81
2023/03/20 12:30:45;;;;;;;;;;;;;;;;;;4937054;29;20377;-81
2023/03/20 12:33:14;;;;;;;;;;;;;;;;;;4946785;29;19922;-81
2023/03/20 12:35:41;;;;;;;;;;;;;;;;;;4952217;28;19945;-81
2023/03/20 12:38:10;;;;;;;;;;;;;;;;;;4944413;28;19930;-81
2023/03/20 12:40:42;;;;;;;;;;;;;;;;;;4947402;29;19922;-81
2023/03/20 12:43:11;;;;;;;;;;;;;;;;;;4938293;29;19947;-81
2023/03/20 12:45:40;;;;;;;;;;;;;;;;;;4946414;29;19923;-81
2023/03/20 12:48:15;;;;;;;;;;;;;;;;;;4945280;29;19922;-81
2023/03/20 12:50:43;;;;;;;;;;;;;;;;;;4938871;29;19930;-81
2023/03/20 12:53:19;;;;;;;;;;;;;;;;;;4942664;29;19934;-81
2023/03/20 12:55:51;;;;;;;;;;;;;;;;;;4945946;29;19929;-81
2023/03/20 12:58:20;;;;;;;;;;;;;;;;;;4949591;29;19930;-81
2023/03/20 13:00:48;;;;;;;;;;;;;;;;;;4944802;29;19923;-81
2023/03/20 13:03:22;;;;;;;;;;;;;;;;;;4941495;29;20389;-81
2023/03/20 13:05:50;;;;;;;;;;;;;;;;;;4944438;29;19922;-81
2023/03/20 13:08:29;;;;;;;;;;;;;;;;;;4952075;29;19922;-81
2023/03/20 13:10:58;;;;;;;;;;;;;;;;;;4947088;29;19930;-81
2023/03/20 13:13:27;;;;;;;;;;;;;;;;;;4941335;29;19922;-81
2023/03/20 13:15:58;;;;;;;;;;;;;;;;;;4944256;29;19934;-81
2023/03/20 13:18:26;;;;;;;;;;;;;;;;;;4942431;29;20316;-81
2023/03/20 13:20:54;;;;;;;;;;;;;;;;;;4929996;29;19932;-81
2023/03/20 13:23:24;;;;;;;;;;;;;;;;;;4936954;29;19929;-81
2023/03/20 13:25:55;;;;;;;;;;;;;;;;;;4942930;29;19923;-81
2023/03/20 13:28:24;;;;;;;;;;;;;;;;;;4944439;29;19930;-81
2023/03/20 13:30:56;;;;;;;;;;;;;;;;;;4954225;28;19922;-81
2023/03/20 13:33:26;;;;;;;;;;;;;;;;;;4934205;29;19923;-81
2023/03/20 13:36:01;;;;;;;;;;;;;;;;;;4939632;29;20336;-81
2023/03/20 13:38:29;;;;;;;;;;;;;;;;;;4935869;29;19923;-81
2023/03/20 13:41:01;;;;;;;;;;;;;;;;;;4943474;29;19929;-81
2023/03/20 13:43:32;;;;;;;;;;;;;;;;;;4949456;28;19922;-81
2023/03/20 13:45:59;;;;;;;;;;;;;;;;;;4936549;29;19923;-81
2023/03/20 13:48:28;;;;;;;;;;;;;;;;;;4926077;29;19930;-81
2023/03/20 13:50:58;;;;;;;;;;;;;;;;;;4945672;29;19929;-81
2023/03/20 13:53:29;;;;;;;;;;;;;;;;;;4941583;29;19922;-81
2023/03/20 13:55:58;;;;;;;;;;;;;;;;;;4949622;29;19922;-81
2023/03/20 13:58:28;;;;;;;;;;;;;;;;;;4942836;29;19923;-81
2023/03/20 14:00:59;;;;;;;;;;;;;;;;;;4946682;28;19938;-81
2023/03/20 14:03:29;;;;;;;;;;;;;;;;;;4941268;29;19929;-81
2023/03/20 14:05:56;;;;;;;;;;;;;;;;;;4948250;29;19929;-81
2023/03/20 14:08:24;;;;;;;;;;;;;;;;;;4937595;29;19922;-81
2023/03/20 14:10:55;;;;;;;;;;;;;;;;;;4947166;29;19922;-81
2023/03/20 14:13:22;;;;;;;;;;;;;;;;;;4949269;29;19923;-81
2023/03/20 14:15:52;;;;;;;;;;;;;;;;;;4946734;29;20292;-81
2023/03/20 14:18:21;;;;;;;;;;;;;;;;;;4933690;29;19922;-81
2023/03/20 14:20:51;;;;;;;;;;;;;;;;;;4930568;29;19923;-81
2023/03/20 14:23:23;;;;;;;;;;;;;;;;;;4934512;29;19933;-81
2023/03/20 14:25:53;;;;;;;;;;;;;;;;;;4946969;29;19923;-81
2023/03/20 14:28:25;;;;;;;;;;;;;;;;;;4946511;29;19922;-81
2023/03/20 14:30:55;;;;;;;;;;;;;;;;;;4946400;29;19922;-81
2023/03/20 14:33:27;;;;;;;;;;;;;;;;;;4941144;29;20289;-81
2023/03/20 14:36:13;;;;;;;;;;;;;;;;;;4947648;29;19937;-82
2023/03/20 14:38:41;;;;;;;;;;;;;;;;;;4947323;29;20003;-81
2023/03/20 14:41:10;;;;;;;;;;;;;;;;;;4958820;28;19923;-81
2023/03/20 14:43:40;;;;;;;;;;;;;;;;;;4940452;29;20301;-81
2023/03/20 14:46:15;;;;;;;;;;;;;;;;;;4933106;29;20415;-81
2023/03/20 14:48:44;;;;;;;;;;;;;;;;;;4948620;29;19923;-81
2023/03/20 14:51:17;;;;;;;;;;;;;;;;;;4938129;29;19930;-81
2023/03/20 14:53:44;;;;;;;;;;;;;;;;;;4934004;29;20119;-81
2023/03/20 14:56:12;;;;;;;;;;;;;;;;;;4944383;29;20304;-81
2023/03/20 14:58:49;;;;;;;;;;;;;;;;;;4934991;29;19931;-81
2023/03/20 15:01:18;;;;;;;;;;;;;;;;;;4934857;29;19930;-81
2023/03/20 15:03:48;;;;;;;;;;;;;;;;;;4949629;29;20304;-81
2023/03/20 15:06:17;;;;;;;;;;;;;;;;;;4948128;29;19926;-81
2023/03/20 15:08:47;;;;;;;;;;;;;;;;;;4949143;29;19930;-81
2023/03/20 15:11:14;;;;;;;;;;;;;;;;;;4946182;29;19933;-81
2023/03/20 15:13:41;;;;;;;;;;;;;;;;;;4950172;29;19923;-81
2023/03/20 15:16:13;;;;;;;;;;;;;;;;;;4935434;29;19956;-81
2023/03/20 15:18:41;;;;;;;;;;;;;;;;;;4947895;29;19930;-81
2023/03/20 15:21:13;;;;;;;;;;;;;;;;;;4943795;29;20428;-81
2023/03/20 15:23:41;;;;;;;;;;;;;;;;;;4933621;29;19923;-81
2023/03/20 15:26:08;;;;;;;;;;;;;;;;;;4946540;29;19946;-81
2023/03/20 15:28:38;;;;;;;;;;;;;;;;;;4945771;29;20304;-81
2023/03/20 15:31:05;;;;;;;;;;;;;;;;;;4949373;29;19926;-81
2023/03/20 15:33:33;;;;;;;;;;;;;;;;;;4943347;28;19933;-81
2023/03/20 15:36:06;;;;;;;;;;;;;;;;;;4964992;23;19929;-81
2023/03/20 15:38:37;;;;;;;;;;;;;;;;;;4940581;28;20419;-81
2023/03/20 15:41:04;;;;;;;;;;;;;;;;;;4932439;29;19923;-81
2023/03/20 15:43:31;;;;;;;;;;;;;;;;;;4924902;29;19922;-81
2023/03/20 15:45:58;;;;;;;;;;;;;;;;;;4935304;29;19926;-81
2023/03/20 15:48:25;;;;;;;;;;;;;;;;;;4927580;29;19927;-81
2023/03/20 15:50:55;;;;;;;;;;;;;;;;;;4930890;29;19942;-81
2023/03/20 15:53:24;;;;;;;;;;;;;;;;;;4910668;29;19930;-81
2023/03/20 15:55:54;;;;;;;;;;;;;;;;;;4935084;29;19923;-81
2023/03/20 15:58:21;;;;;;;;;;;;;;;;;;4931539;29;19937;-81
2023/03/20 16:00:48;;;;;;;;;;;;;;;;;;4931662;29;20389;-81
2023/03/20 16:03:18;;;;;;;;;;;;;;;;;;4944043;29;19929;-81
2023/03/20 16:05:45;;;;;;;;;;;;;;;;;;4938042;29;20127;-81
2023/03/20 16:08:20;;;;;;;;;;;;;;;;;;4941056;29;19926;-81
2023/03/20 16:10:47;;;;;;;;;;;;;;;;;;4929767;29;20357;-81
2023/03/20 16:13:16;;;;;;;;;;;;;;;;;;4933510;29;19922;-81
2023/03/20 16:15:46;;;;;;;;;;;;;;;;;;4918006;29;19926;-81
2023/03/20 16:18:15;;;;;;;;;;;;;;;;;;4930510;29;19930;-81
2023/03/20 16:20:47;;;;;;;;;;;;;;;;;;4936342;29;20321;-81
2023/03/20 16:23:20;;;;;;;;;;;;;;;;;;4943896;29;19931;-81
2023/03/20 16:25:46;;;;;;;;;;;;;;;;;;4946765;29;19923;-81
2023/03/20 16:28:13;;;;;;;;;;;;;;;;;;4945058;29;20297;-81
2023/03/20 16:30:42;;;;;;;;;;;;;;;;;;4928149;29;19923;-81
2023/03/20 16:33:11;;;;;;;;;;;;;;;;;;4936547;29;19923;-81
2023/03/20 16:35:38;;;;;;;;;;;;;;;;;;4935890;29;19930;-80
2023/03/20 16:38:14;;;;;;;;;;;;;;;;;;4932016;29;20424;-81
2023/03/20 16:40:41;;;;;;;;;;;;;;;;;;4933073;29;19926;-81
2023/03/20 16:43:13;;;;;;;;;;;;;;;;;;4928657;29;19923;-80
2023/03/20 16:45:43;;;;;;;;;;;;;;;;;;4934843;29;20304;-81
2023/03/20 16:48:36;;;;;;;;;;;;;;;;;;4933822;29;19922;-81
2023/03/20 16:51:08;;;;;;;;;;;;;;;;;;4932808;29;19930;-81
2023/03/20 16:53:40;;;;;;;;;;;;;;;;;;4934603;29;19927;-81
2023/03/20 16:56:13;;;;;;;;;;;;;;;;;;4915992;29;19922;-80
2023/03/20 16:58:44;;;;;;;;;;;;;;;;;;4939274;29;20398;-81
2023/03/20 17:01:16;;;;;;;;;;;;;;;;;;4931057;29;19930;-81
2023/03/20 17:03:51;;;;;;;;;;;;;;;;;;4947979;28;19922;-81
2023/03/20 17:06:34;;;;;;;;;;;;;;;;;;4935954;29;19929;-81
2023/03/20 17:09:02;;;;;;;;;;;;;;;;;;4937007;29;20404;-81
2023/03/20 17:11:29;;;;;;;;;;;;;;;;;;4930826;29;19923;-81
2023/03/20 17:13:56;;;;;;;;;;;;;;;;;;4932714;29;20424;-81